sensor_id;sensor_type;location;lat;lon;timestamp;P1;durP1;ratioP1;P2;durP2;ratioP2
13026;SDS011;6580;42.680;23.324;2023-12-14T00:01:49;12.13;;;10.67;;
13026;SDS011;6580;42.680;23.324;2023-12-14T00:04:16;15.63;;;10.87;;
13026;SDS011;6580;42.680;23.324;2023-12-14T00:06:44;14.63;;;11.27;;
13026;SDS011;6580;42.680;23.324;2023-12-14T00:09:11;14.17;;;11.07;;
13026;SDS011;6580;42.680;23.324;2023-12-14T00:11:38;17.47;;;12.30;;
13026;SDS011;6580;42.680;23.324;2023-12-14T00:14:05;15.57;;;9.83;;
13026;SDS011;6580;42.680;23.324;2023-12-14T00:16:32;13.33;;;11.10;;
13026;SDS011;6580;42.680;23.324;2023-12-14T00:18:59;16.43;;;10.37;;
13026;SDS011;6580;42.680;23.324;2023-12-14T00:21:26;17.37;;;11.43;;
13026;SDS011;6580;42.680;23.324;2023-12-14T00:23:55;14.97;;;10.33;;
13026;SDS011;6580;42.680;23.324;2023-12-14T00:26:22;14.57;;;11.30;;
13026;SDS011;6580;42.680;23.324;2023-12-14T00:28:48;15.07;;;10.80;;
13026;SDS011;6580;42.680;23.324;2023-12-14T00:31:15;13.90;;;10.63;;
13026;SDS011;6580;42.680;23.324;2023-12-14T00:33:43;15.43;;;10.93;;
13026;SDS011;6580;42.680;23.324;2023-12-14T00:36:10;14.20;;;10.97;;
13026;SDS011;6580;42.680;23.324;2023-12-14T00:38:44;14.10;;;10.70;;
13026;SDS011;6580;42.680;23.324;2023-12-14T00:41:13;17.27;;;11.90;;
13026;SDS011;6580;42.680;23.324;2023-12-14T00:43:39;14.80;;;11.37;;
13026;SDS011;6580;42.680;23.324;2023-12-14T00:46:07;15.30;;;11.57;;
13026;SDS011;6580;42.680;23.324;2023-12-14T00:48:34;18.67;;;12.17;;
13026;SDS011;6580;42.680;23.324;2023-12-14T00:51:01;14.77;;;11.63;;
13026;SDS011;6580;42.680;23.324;2023-12-14T00:53:30;15.57;;;11.90;;
13026;SDS011;6580;42.680;23.324;2023-12-14T00:55:57;14.00;;;11.03;;
13026;SDS011;6580;42.680;23.324;2023-12-14T00:58:25;15.90;;;11.70;;
13026;SDS011;6580;42.680;23.324;2023-12-14T01:00:52;15.53;;;11.37;;
13026;SDS011;6580;42.680;23.324;2023-12-14T01:03:20;13.67;;;11.53;;
13026;SDS011;6580;42.680;23.324;2023-12-14T01:05:47;17.23;;;12.47;;
13026;SDS011;6580;42.680;23.324;2023-12-14T01:08:13;15.53;;;11.20;;
13026;SDS011;6580;42.680;23.324;2023-12-14T01:10:41;16.43;;;12.77;;
13026;SDS011;6580;42.680;23.324;2023-12-14T01:13:08;17.37;;;12.03;;
13026;SDS011;6580;42.680;23.324;2023-12-14T01:15:36;14.23;;;11.97;;
13026;SDS011;6580;42.680;23.324;2023-12-14T01:18:03;17.40;;;11.87;;
13026;SDS011;6580;42.680;23.324;2023-12-14T01:20:30;17.60;;;12.47;;
13026;SDS011;6580;42.680;23.324;2023-12-14T01:22:57;14.97;;;11.17;;
13026;SDS011;6580;42.680;23.324;2023-12-14T01:25:24;15.40;;;11.67;;
13026;SDS011;6580;42.680;23.324;2023-12-14T01:27:51;17.53;;;12.07;;
13026;SDS011;6580;42.680;23.324;2023-12-14T01:30:18;16.87;;;11.47;;
13026;SDS011;6580;42.680;23.324;2023-12-14T01:32:46;16.47;;;11.57;;
13026;SDS011;6580;42.680;23.324;2023-12-14T01:35:13;16.37;;;12.33;;
13026;SDS011;6580;42.680;23.324;2023-12-14T01:37:40;18.63;;;13.50;;
13026;SDS011;6580;42.680;23.324;2023-12-14T01:40:07;15.83;;;11.73;;
13026;SDS011;6580;42.680;23.324;2023-12-14T01:42:35;17.57;;;13.20;;
13026;SDS011;6580;42.680;23.324;2023-12-14T01:45:02;15.57;;;12.17;;
13026;SDS011;6580;42.680;23.324;2023-12-14T01:47:29;16.87;;;12.10;;
13026;SDS011;6580;42.680;23.324;2023-12-14T01:49:57;16.27;;;12.30;;
13026;SDS011;6580;42.680;23.324;2023-12-14T01:52:24;18.33;;;13.47;;
13026;SDS011;6580;42.680;23.324;2023-12-14T01:54:51;16.87;;;11.33;;
13026;SDS011;6580;42.680;23.324;2023-12-14T01:57:20;16.03;;;11.53;;
13026;SDS011;6580;42.680;23.324;2023-12-14T01:59:47;17.67;;;12.50;;
13026;SDS011;6580;42.680;23.324;2023-12-14T02:02:14;16.10;;;11.43;;
13026;SDS011;6580;42.680;23.324;2023-12-14T02:04:41;16.60;;;12.47;;
13026;SDS011;6580;42.680;23.324;2023-12-14T02:07:09;17.90;;;12.40;;
13026;SDS011;6580;42.680;23.324;2023-12-14T02:09:36;17.50;;;13.47;;
13026;SDS011;6580;42.680;23.324;2023-12-14T02:12:04;16.87;;;11.73;;
13026;SDS011;6580;42.680;23.324;2023-12-14T02:14:31;15.00;;;11.53;;
13026;SDS011;6580;42.680;23.324;2023-12-14T02:16:58;19.50;;;12.63;;
13026;SDS011;6580;42.680;23.324;2023-12-14T02:19:25;17.83;;;12.50;;
13026;SDS011;6580;42.680;23.324;2023-12-14T02:21:52;16.10;;;12.23;;
13026;SDS011;6580;42.680;23.324;2023-12-14T02:24:20;14.10;;;12.03;;
13026;SDS011;6580;42.680;23.324;2023-12-14T02:26:47;18.67;;;11.93;;
13026;SDS011;6580;42.680;23.324;2023-12-14T02:29:14;17.93;;;12.70;;
13026;SDS011;6580;42.680;23.324;2023-12-14T02:31:41;17.30;;;12.30;;
13026;SDS011;6580;42.680;23.324;2023-12-14T02:34:08;16.93;;;12.80;;
13026;SDS011;6580;42.680;23.324;2023-12-14T02:36:35;17.73;;;11.03;;
13026;SDS011;6580;42.680;23.324;2023-12-14T02:39:02;15.57;;;12.00;;
13026;SDS011;6580;42.680;23.324;2023-12-14T02:41:30;16.77;;;12.57;;
13026;SDS011;6580;42.680;23.324;2023-12-14T02:43:57;16.20;;;11.30;;
13026;SDS011;6580;42.680;23.324;2023-12-14T02:46:24;14.97;;;11.77;;
13026;SDS011;6580;42.680;23.324;2023-12-14T02:48:51;14.30;;;11.07;;
13026;SDS011;6580;42.680;23.324;2023-12-14T02:51:18;13.17;;;10.17;;
13026;SDS011;6580;42.680;23.324;2023-12-14T02:53:45;13.33;;;10.87;;
13026;SDS011;6580;42.680;23.324;2023-12-14T02:56:12;17.37;;;10.97;;
13026;SDS011;6580;42.680;23.324;2023-12-14T02:58:40;12.20;;;9.63;;
13026;SDS011;6580;42.680;23.324;2023-12-14T03:01:07;13.67;;;10.63;;
13026;SDS011;6580;42.680;23.324;2023-12-14T03:03:34;13.50;;;10.47;;
13026;SDS011;6580;42.680;23.324;2023-12-14T03:06:04;14.37;;;9.77;;
13026;SDS011;6580;42.680;23.324;2023-12-14T03:08:31;13.97;;;9.30;;
13026;SDS011;6580;42.680;23.324;2023-12-14T03:10:58;13.27;;;9.47;;
13026;SDS011;6580;42.680;23.324;2023-12-14T03:13:25;10.17;;;9.10;;
13026;SDS011;6580;42.680;23.324;2023-12-14T03:15:55;13.13;;;9.53;;
13026;SDS011;6580;42.680;23.324;2023-12-14T03:18:21;13.23;;;9.70;;
13026;SDS011;6580;42.680;23.324;2023-12-14T03:20:48;11.07;;;9.47;;
13026;SDS011;6580;42.680;23.324;2023-12-14T03:23:16;10.43;;;8.97;;
13026;SDS011;6580;42.680;23.324;2023-12-14T03:25:43;9.70;;;8.70;;
13026;SDS011;6580;42.680;23.324;2023-12-14T03:28:09;13.10;;;10.23;;
13026;SDS011;6580;42.680;23.324;2023-12-14T03:30:36;11.30;;;9.07;;
13026;SDS011;6580;42.680;23.324;2023-12-14T03:33:05;12.13;;;9.50;;
13026;SDS011;6580;42.680;23.324;2023-12-14T03:35:33;12.10;;;9.40;;
13026;SDS011;6580;42.680;23.324;2023-12-14T03:37:59;10.20;;;8.03;;
13026;SDS011;6580;42.680;23.324;2023-12-14T03:40:26;9.83;;;8.60;;
13026;SDS011;6580;42.680;23.324;2023-12-14T03:42:53;10.90;;;8.73;;
13026;SDS011;6580;42.680;23.324;2023-12-14T03:45:20;10.80;;;9.03;;
13026;SDS011;6580;42.680;23.324;2023-12-14T03:47:47;10.87;;;8.67;;
13026;SDS011;6580;42.680;23.324;2023-12-14T03:50:16;9.00;;;7.90;;
13026;SDS011;6580;42.680;23.324;2023-12-14T03:52:43;12.33;;;8.80;;
13026;SDS011;6580;42.680;23.324;2023-12-14T03:55:10;12.60;;;8.80;;
13026;SDS011;6580;42.680;23.324;2023-12-14T03:57:37;12.57;;;9.20;;
13026;SDS011;6580;42.680;23.324;2023-12-14T04:00:05;15.40;;;9.87;;
13026;SDS011;6580;42.680;23.324;2023-12-14T04:02:34;13.83;;;9.07;;
13026;SDS011;6580;42.680;23.324;2023-12-14T04:05:01;11.67;;;8.57;;
13026;SDS011;6580;42.680;23.324;2023-12-14T04:07:30;13.37;;;9.47;;
13026;SDS011;6580;42.680;23.324;2023-12-14T04:09:57;11.27;;;8.80;;
13026;SDS011;6580;42.680;23.324;2023-12-14T04:12:23;14.10;;;8.87;;
13026;SDS011;6580;42.680;23.324;2023-12-14T04:14:50;12.30;;;8.57;;
13026;SDS011;6580;42.680;23.324;2023-12-14T04:17:17;11.37;;;8.93;;
13026;SDS011;6580;42.680;23.324;2023-12-14T04:19:44;12.63;;;8.97;;
13026;SDS011;6580;42.680;23.324;2023-12-14T04:22:11;10.27;;;7.60;;
13026;SDS011;6580;42.680;23.324;2023-12-14T04:24:39;13.90;;;8.50;;
13026;SDS011;6580;42.680;23.324;2023-12-14T04:27:06;9.67;;;7.67;;
13026;SDS011;6580;42.680;23.324;2023-12-14T04:29:33;11.30;;;7.87;;
13026;SDS011;6580;42.680;23.324;2023-12-14T04:32:00;12.10;;;8.20;;
13026;SDS011;6580;42.680;23.324;2023-12-14T04:34:27;8.60;;;7.40;;
13026;SDS011;6580;42.680;23.324;2023-12-14T04:36:54;13.07;;;8.87;;
13026;SDS011;6580;42.680;23.324;2023-12-14T04:39:23;11.93;;;9.47;;
13026;SDS011;6580;42.680;23.324;2023-12-14T04:41:51;13.03;;;9.87;;
13026;SDS011;6580;42.680;23.324;2023-12-14T04:44:18;13.37;;;10.00;;
13026;SDS011;6580;42.680;23.324;2023-12-14T04:46:46;13.47;;;10.70;;
13026;SDS011;6580;42.680;23.324;2023-12-14T04:49:13;15.60;;;9.73;;
13026;SDS011;6580;42.680;23.324;2023-12-14T04:51:40;15.30;;;9.43;;
13026;SDS011;6580;42.680;23.324;2023-12-14T04:54:07;11.53;;;9.40;;
13026;SDS011;6580;42.680;23.324;2023-12-14T04:56:34;12.00;;;9.33;;
13026;SDS011;6580;42.680;23.324;2023-12-14T04:59:03;13.63;;;9.47;;
13026;SDS011;6580;42.680;23.324;2023-12-14T05:01:29;13.27;;;10.23;;
13026;SDS011;6580;42.680;23.324;2023-12-14T05:03:56;12.77;;;9.47;;
13026;SDS011;6580;42.680;23.324;2023-12-14T05:06:23;14.27;;;10.33;;
13026;SDS011;6580;42.680;23.324;2023-12-14T05:08:50;10.83;;;9.07;;
13026;SDS011;6580;42.680;23.324;2023-12-14T05:11:17;13.23;;;9.67;;
13026;SDS011;6580;42.680;23.324;2023-12-14T05:13:44;13.00;;;10.10;;
13026;SDS011;6580;42.680;23.324;2023-12-14T05:16:13;15.13;;;11.50;;
13026;SDS011;6580;42.680;23.324;2023-12-14T05:18:41;12.03;;;10.20;;
13026;SDS011;6580;42.680;23.324;2023-12-14T05:21:07;13.43;;;10.67;;
13026;SDS011;6580;42.680;23.324;2023-12-14T05:23:34;14.40;;;10.90;;
13026;SDS011;6580;42.680;23.324;2023-12-14T05:26:01;13.03;;;9.57;;
13026;SDS011;6580;42.680;23.324;2023-12-14T05:28:29;13.83;;;9.77;;
13026;SDS011;6580;42.680;23.324;2023-12-14T05:30:55;12.67;;;10.23;;
13026;SDS011;6580;42.680;23.324;2023-12-14T05:33:24;14.43;;;10.47;;
13026;SDS011;6580;42.680;23.324;2023-12-14T05:35:51;10.90;;;8.97;;
13026;SDS011;6580;42.680;23.324;2023-12-14T05:38:18;13.87;;;9.07;;
13026;SDS011;6580;42.680;23.324;2023-12-14T05:40:45;10.80;;;9.00;;
13026;SDS011;6580;42.680;23.324;2023-12-14T05:43:12;14.10;;;9.53;;
13026;SDS011;6580;42.680;23.324;2023-12-14T05:45:39;12.20;;;9.73;;
13026;SDS011;6580;42.680;23.324;2023-12-14T05:48:06;10.57;;;8.87;;
13026;SDS011;6580;42.680;23.324;2023-12-14T05:50:34;13.63;;;9.10;;
13026;SDS011;6580;42.680;23.324;2023-12-14T05:53:01;14.63;;;10.00;;
13026;SDS011;6580;42.680;23.324;2023-12-14T05:55:28;14.67;;;9.87;;
13026;SDS011;6580;42.680;23.324;2023-12-14T05:57:55;15.57;;;9.83;;
13026;SDS011;6580;42.680;23.324;2023-12-14T06:00:22;11.30;;;9.77;;
13026;SDS011;6580;42.680;23.324;2023-12-14T06:02:49;13.00;;;10.00;;
13026;SDS011;6580;42.680;23.324;2023-12-14T06:05:16;11.30;;;9.57;;
13026;SDS011;6580;42.680;23.324;2023-12-14T06:07:44;9.80;;;8.80;;
13026;SDS011;6580;42.680;23.324;2023-12-14T06:10:11;15.47;;;9.57;;
13026;SDS011;6580;42.680;23.324;2023-12-14T06:12:38;13.37;;;9.03;;
13026;SDS011;6580;42.680;23.324;2023-12-14T06:15:06;13.33;;;9.10;;
13026;SDS011;6580;42.680;23.324;2023-12-14T06:17:35;11.53;;;9.47;;
13026;SDS011;6580;42.680;23.324;2023-12-14T06:20:04;13.53;;;10.40;;
13026;SDS011;6580;42.680;23.324;2023-12-14T06:22:33;16.23;;;11.97;;
13026;SDS011;6580;42.680;23.324;2023-12-14T06:25:03;14.60;;;10.77;;
13026;SDS011;6580;42.680;23.324;2023-12-14T06:27:31;15.50;;;9.97;;
13026;SDS011;6580;42.680;23.324;2023-12-14T06:29:58;12.40;;;9.70;;
13026;SDS011;6580;42.680;23.324;2023-12-14T06:32:24;12.40;;;9.17;;
13026;SDS011;6580;42.680;23.324;2023-12-14T06:34:52;12.87;;;10.10;;
13026;SDS011;6580;42.680;23.324;2023-12-14T06:37:18;13.43;;;10.77;;
13026;SDS011;6580;42.680;23.324;2023-12-14T06:39:47;14.90;;;11.00;;
13026;SDS011;6580;42.680;23.324;2023-12-14T06:42:15;11.03;;;9.37;;
13026;SDS011;6580;42.680;23.324;2023-12-14T06:44:42;13.13;;;10.30;;
13026;SDS011;6580;42.680;23.324;2023-12-14T06:47:12;14.77;;;9.90;;
13026;SDS011;6580;42.680;23.324;2023-12-14T06:49:39;13.27;;;9.73;;
13026;SDS011;6580;42.680;23.324;2023-12-14T06:52:07;12.10;;;9.90;;
13026;SDS011;6580;42.680;23.324;2023-12-14T06:54:34;12.70;;;8.67;;
13026;SDS011;6580;42.680;23.324;2023-12-14T06:57:01;13.30;;;8.90;;
13026;SDS011;6580;42.680;23.324;2023-12-14T06:59:30;13.37;;;9.77;;
13026;SDS011;6580;42.680;23.324;2023-12-14T07:01:57;11.73;;;9.23;;
13026;SDS011;6580;42.680;23.324;2023-12-14T07:04:24;12.73;;;9.73;;
13026;SDS011;6580;42.680;23.324;2023-12-14T07:06:51;13.57;;;10.47;;
13026;SDS011;6580;42.680;23.324;2023-12-14T07:09:18;11.00;;;8.77;;
13026;SDS011;6580;42.680;23.324;2023-12-14T07:11:45;13.53;;;9.73;;
13026;SDS011;6580;42.680;23.324;2023-12-14T07:14:12;12.67;;;10.33;;
13026;SDS011;6580;42.680;23.324;2023-12-14T07:16:41;15.43;;;10.50;;
13026;SDS011;6580;42.680;23.324;2023-12-14T07:19:08;11.50;;;8.23;;
13026;SDS011;6580;42.680;23.324;2023-12-14T07:21:36;11.27;;;8.17;;
13026;SDS011;6580;42.680;23.324;2023-12-14T07:24:03;12.50;;;8.93;;
13026;SDS011;6580;42.680;23.324;2023-12-14T07:26:30;10.80;;;8.03;;
13026;SDS011;6580;42.680;23.324;2023-12-14T07:28:58;9.37;;;7.87;;
13026;SDS011;6580;42.680;23.324;2023-12-14T07:31:24;13.03;;;9.63;;
13026;SDS011;6580;42.680;23.324;2023-12-14T07:33:55;11.13;;;8.47;;
13026;SDS011;6580;42.680;23.324;2023-12-14T07:36:21;11.40;;;9.60;;
13026;SDS011;6580;42.680;23.324;2023-12-14T07:38:48;14.90;;;11.10;;
13026;SDS011;6580;42.680;23.324;2023-12-14T07:41:15;11.47;;;8.37;;
13026;SDS011;6580;42.680;23.324;2023-12-14T07:43:42;13.03;;;9.33;;
13026;SDS011;6580;42.680;23.324;2023-12-14T07:46:09;13.60;;;8.00;;
13026;SDS011;6580;42.680;23.324;2023-12-14T07:48:36;13.47;;;8.60;;
13026;SDS011;6580;42.680;23.324;2023-12-14T07:51:05;11.53;;;8.80;;
13026;SDS011;6580;42.680;23.324;2023-12-14T07:53:32;13.77;;;8.43;;
13026;SDS011;6580;42.680;23.324;2023-12-14T07:55:59;10.77;;;8.67;;
13026;SDS011;6580;42.680;23.324;2023-12-14T07:58:27;13.40;;;8.07;;
13026;SDS011;6580;42.680;23.324;2023-12-14T08:00:54;10.43;;;7.40;;
13026;SDS011;6580;42.680;23.324;2023-12-14T08:03:21;8.93;;;8.03;;
13026;SDS011;6580;42.680;23.324;2023-12-14T08:05:48;11.23;;;8.83;;
13026;SDS011;6580;42.680;23.324;2023-12-14T08:08:17;11.73;;;8.03;;
13026;SDS011;6580;42.680;23.324;2023-12-14T08:10:44;16.30;;;9.30;;
13026;SDS011;6580;42.680;23.324;2023-12-14T08:13:11;13.73;;;8.63;;
13026;SDS011;6580;42.680;23.324;2023-12-14T08:15:38;11.70;;;9.23;;
13026;SDS011;6580;42.680;23.324;2023-12-14T08:18:07;13.10;;;8.90;;
13026;SDS011;6580;42.680;23.324;2023-12-14T08:20:34;9.83;;;7.90;;
13026;SDS011;6580;42.680;23.324;2023-12-14T08:23:01;9.63;;;7.80;;
13026;SDS011;6580;42.680;23.324;2023-12-14T08:25:29;11.07;;;7.87;;
13026;SDS011;6580;42.680;23.324;2023-12-14T08:27:56;11.83;;;9.10;;
13026;SDS011;6580;42.680;23.324;2023-12-14T08:30:23;14.70;;;9.27;;
13026;SDS011;6580;42.680;23.324;2023-12-14T08:32:50;11.17;;;8.50;;
13026;SDS011;6580;42.680;23.324;2023-12-14T08:35:17;12.33;;;8.20;;
13026;SDS011;6580;42.680;23.324;2023-12-14T08:37:44;13.53;;;7.70;;
13026;SDS011;6580;42.680;23.324;2023-12-14T08:40:11;9.37;;;7.83;;
13026;SDS011;6580;42.680;23.324;2023-12-14T08:42:39;14.50;;;8.20;;
13026;SDS011;6580;42.680;23.324;2023-12-14T08:45:07;9.53;;;7.50;;
13026;SDS011;6580;42.680;23.324;2023-12-14T08:47:36;8.63;;;6.30;;
13026;SDS011;6580;42.680;23.324;2023-12-14T08:50:04;9.10;;;6.83;;
13026;SDS011;6580;42.680;23.324;2023-12-14T08:52:32;8.27;;;7.17;;
13026;SDS011;6580;42.680;23.324;2023-12-14T08:54:59;7.03;;;6.33;;
13026;SDS011;6580;42.680;23.324;2023-12-14T08:57:27;10.27;;;7.00;;
13026;SDS011;6580;42.680;23.324;2023-12-14T08:59:56;7.83;;;6.07;;
13026;SDS011;6580;42.680;23.324;2023-12-14T09:02:23;9.13;;;7.23;;
13026;SDS011;6580;42.680;23.324;2023-12-14T09:04:50;9.50;;;6.00;;
13026;SDS011;6580;42.680;23.324;2023-12-14T09:07:17;8.27;;;5.80;;
13026;SDS011;6580;42.680;23.324;2023-12-14T09:09:44;7.43;;;5.50;;
13026;SDS011;6580;42.680;23.324;2023-12-14T09:12:11;9.13;;;7.10;;
13026;SDS011;6580;42.680;23.324;2023-12-14T09:14:38;7.67;;;6.30;;
13026;SDS011;6580;42.680;23.324;2023-12-14T09:17:06;9.07;;;6.07;;
13026;SDS011;6580;42.680;23.324;2023-12-14T09:19:33;8.50;;;6.53;;
13026;SDS011;6580;42.680;23.324;2023-12-14T09:22:00;11.17;;;6.57;;
13026;SDS011;6580;42.680;23.324;2023-12-14T09:24:27;12.17;;;8.87;;
13026;SDS011;6580;42.680;23.324;2023-12-14T09:26:55;7.63;;;6.83;;
13026;SDS011;6580;42.680;23.324;2023-12-14T09:29:22;10.47;;;6.23;;
13026;SDS011;6580;42.680;23.324;2023-12-14T09:31:49;8.47;;;5.73;;
13026;SDS011;6580;42.680;23.324;2023-12-14T09:34:18;7.67;;;5.83;;
13026;SDS011;6580;42.680;23.324;2023-12-14T09:36:45;14.20;;;5.80;;
13026;SDS011;6580;42.680;23.324;2023-12-14T09:39:12;7.30;;;6.20;;
13026;SDS011;6580;42.680;23.324;2023-12-14T09:41:40;7.40;;;6.30;;
13026;SDS011;6580;42.680;23.324;2023-12-14T09:44:07;7.63;;;6.50;;
13026;SDS011;6580;42.680;23.324;2023-12-14T09:46:36;10.07;;;6.60;;
13026;SDS011;6580;42.680;23.324;2023-12-14T09:49:04;13.00;;;9.07;;
13026;SDS011;6580;42.680;23.324;2023-12-14T09:51:32;12.87;;;9.40;;
13026;SDS011;6580;42.680;23.324;2023-12-14T09:53:59;7.87;;;6.03;;
13026;SDS011;6580;42.680;23.324;2023-12-14T09:56:26;8.13;;;6.17;;
13026;SDS011;6580;42.680;23.324;2023-12-14T09:58:53;10.87;;;6.77;;
13026;SDS011;6580;42.680;23.324;2023-12-14T10:01:21;9.67;;;7.13;;
13026;SDS011;6580;42.680;23.324;2023-12-14T10:03:49;10.67;;;6.67;;
13026;SDS011;6580;42.680;23.324;2023-12-14T10:06:17;9.73;;;6.97;;
13026;SDS011;6580;42.680;23.324;2023-12-14T10:08:54;10.77;;;7.40;;
13026;SDS011;6580;42.680;23.324;2023-12-14T10:11:22;10.87;;;7.57;;
13026;SDS011;6580;42.680;23.324;2023-12-14T10:13:49;19.07;;;13.27;;
13026;SDS011;6580;42.680;23.324;2023-12-14T10:16:26;14.83;;;9.37;;
13026;SDS011;6580;42.680;23.324;2023-12-14T10:18:55;12.33;;;9.53;;
13026;SDS011;6580;42.680;23.324;2023-12-14T10:21:23;10.13;;;7.27;;
13026;SDS011;6580;42.680;23.324;2023-12-14T10:23:50;15.97;;;9.50;;
13026;SDS011;6580;42.680;23.324;2023-12-14T10:26:19;15.37;;;9.07;;
13026;SDS011;6580;42.680;23.324;2023-12-14T10:28:48;15.53;;;9.00;;
13026;SDS011;6580;42.680;23.324;2023-12-14T10:31:16;10.50;;;7.07;;
13026;SDS011;6580;42.680;23.324;2023-12-14T10:33:44;12.03;;;7.67;;
13026;SDS011;6580;42.680;23.324;2023-12-14T10:36:12;11.93;;;7.80;;
13026;SDS011;6580;42.680;23.324;2023-12-14T10:38:40;10.20;;;7.67;;
13026;SDS011;6580;42.680;23.324;2023-12-14T10:41:09;10.63;;;8.27;;
13026;SDS011;6580;42.680;23.324;2023-12-14T10:43:41;18.83;;;11.03;;
13026;SDS011;6580;42.680;23.324;2023-12-14T10:46:09;17.43;;;12.40;;
13026;SDS011;6580;42.680;23.324;2023-12-14T10:48:36;14.50;;;10.97;;
13026;SDS011;6580;42.680;23.324;2023-12-14T10:51:04;11.17;;;8.90;;
13026;SDS011;6580;42.680;23.324;2023-12-14T10:53:33;12.23;;;9.30;;
13026;SDS011;6580;42.680;23.324;2023-12-14T10:56:01;13.83;;;8.80;;
13026;SDS011;6580;42.680;23.324;2023-12-14T10:58:45;10.93;;;7.30;;
13026;SDS011;6580;42.680;23.324;2023-12-14T11:01:13;8.33;;;7.33;;
13026;SDS011;6580;42.680;23.324;2023-12-14T11:03:42;8.70;;;6.60;;
13026;SDS011;6580;42.680;23.324;2023-12-14T11:06:27;10.33;;;6.63;;
13026;SDS011;6580;42.680;23.324;2023-12-14T11:08:56;7.80;;;6.13;;
13026;SDS011;6580;42.680;23.324;2023-12-14T11:11:28;6.07;;;5.13;;
13026;SDS011;6580;42.680;23.324;2023-12-14T11:13:57;5.73;;;5.10;;
13026;SDS011;6580;42.680;23.324;2023-12-14T11:16:25;6.27;;;5.67;;
13026;SDS011;6580;42.680;23.324;2023-12-14T11:22:10;5.53;;;3.97;;
13026;SDS011;6580;42.680;23.324;2023-12-14T11:24:50;6.60;;;3.90;;
13026;SDS011;6580;42.680;23.324;2023-12-14T11:27:20;5.30;;;3.87;;
13026;SDS011;6580;42.680;23.324;2023-12-14T11:29:53;6.33;;;3.73;;
13026;SDS011;6580;42.680;23.324;2023-12-14T11:32:20;5.67;;;4.30;;
13026;SDS011;6580;42.680;23.324;2023-12-14T11:34:47;5.93;;;4.20;;
13026;SDS011;6580;42.680;23.324;2023-12-14T11:37:14;5.43;;;3.10;;
13026;SDS011;6580;42.680;23.324;2023-12-14T11:39:41;4.97;;;3.13;;
13026;SDS011;6580;42.680;23.324;2023-12-14T11:42:09;7.00;;;2.53;;
13026;SDS011;6580;42.680;23.324;2023-12-14T11:44:36;5.17;;;2.17;;
13026;SDS011;6580;42.680;23.324;2023-12-14T11:47:05;2.13;;;1.83;;
13026;SDS011;6580;42.680;23.324;2023-12-14T11:49:32;2.87;;;2.00;;
13026;SDS011;6580;42.680;23.324;2023-12-14T11:52:01;4.37;;;2.17;;
13026;SDS011;6580;42.680;23.324;2023-12-14T11:54:30;4.27;;;2.93;;
13026;SDS011;6580;42.680;23.324;2023-12-14T11:56:57;3.93;;;2.20;;
13026;SDS011;6580;42.680;23.324;2023-12-14T11:59:24;2.60;;;2.40;;
13026;SDS011;6580;42.680;23.324;2023-12-14T12:01:53;4.93;;;3.80;;
13026;SDS011;6580;42.680;23.324;2023-12-14T12:04:23;2.37;;;2.10;;
13026;SDS011;6580;42.680;23.324;2023-12-14T12:06:58;5.33;;;2.37;;
13026;SDS011;6580;42.680;23.324;2023-12-14T12:09:36;5.37;;;2.20;;
13026;SDS011;6580;42.680;23.324;2023-12-14T12:12:07;4.00;;;1.97;;
13026;SDS011;6580;42.680;23.324;2023-12-14T12:14:36;1.83;;;1.63;;
13026;SDS011;6580;42.680;23.324;2023-12-14T12:17:03;2.77;;;1.87;;
13026;SDS011;6580;42.680;23.324;2023-12-14T12:19:33;2.43;;;1.47;;
13026;SDS011;6580;42.680;23.324;2023-12-14T12:22:01;5.27;;;2.57;;
13026;SDS011;6580;42.680;23.324;2023-12-14T12:24:28;2.03;;;1.70;;
13026;SDS011;6580;42.680;23.324;2023-12-14T12:26:55;2.37;;;1.40;;
13026;SDS011;6580;42.680;23.324;2023-12-14T12:29:22;2.90;;;1.50;;
13026;SDS011;6580;42.680;23.324;2023-12-14T12:31:49;2.10;;;1.83;;
13026;SDS011;6580;42.680;23.324;2023-12-14T12:34:16;1.80;;;1.70;;
13026;SDS011;6580;42.680;23.324;2023-12-14T12:36:45;1.97;;;1.60;;
13026;SDS011;6580;42.680;23.324;2023-12-14T12:39:12;1.93;;;1.83;;
13026;SDS011;6580;42.680;23.324;2023-12-14T12:41:39;2.17;;;1.97;;
13026;SDS011;6580;42.680;23.324;2023-12-14T12:44:06;3.47;;;2.60;;
13026;SDS011;6580;42.680;23.324;2023-12-14T12:46:33;1.83;;;1.70;;
13026;SDS011;6580;42.680;23.324;2023-12-14T12:49:00;3.43;;;2.23;;
13026;SDS011;6580;42.680;23.324;2023-12-14T12:51:28;1.70;;;1.60;;
13026;SDS011;6580;42.680;23.324;2023-12-14T12:53:57;1.67;;;1.33;;
13026;SDS011;6580;42.680;23.324;2023-12-14T12:56:25;2.73;;;2.20;;
13026;SDS011;6580;42.680;23.324;2023-12-14T12:58:52;1.60;;;1.50;;
13026;SDS011;6580;42.680;23.324;2023-12-14T13:01:20;1.90;;;1.53;;
13026;SDS011;6580;42.680;23.324;2023-12-14T13:03:52;1.87;;;1.77;;
13026;SDS011;6580;42.680;23.324;2023-12-14T13:06:21;2.10;;;2.00;;
13026;SDS011;6580;42.680;23.324;2023-12-14T13:08:48;3.93;;;1.90;;
13026;SDS011;6580;42.680;23.324;2023-12-14T13:11:16;4.60;;;2.60;;
13026;SDS011;6580;42.680;23.324;2023-12-14T13:13:43;3.90;;;2.20;;
13026;SDS011;6580;42.680;23.324;2023-12-14T13:16:10;3.00;;;2.00;;
13026;SDS011;6580;42.680;23.324;2023-12-14T13:18:39;2.00;;;1.90;;
13026;SDS011;6580;42.680;23.324;2023-12-14T13:21:06;2.23;;;1.90;;
13026;SDS011;6580;42.680;23.324;2023-12-14T13:23:33;3.70;;;2.13;;
13026;SDS011;6580;42.680;23.324;2023-12-14T13:26:00;4.87;;;2.30;;
13026;SDS011;6580;42.680;23.324;2023-12-14T13:28:28;3.03;;;2.17;;
13026;SDS011;6580;42.680;23.324;2023-12-14T13:30:55;1.20;;;1.20;;
13026;SDS011;6580;42.680;23.324;2023-12-14T13:33:22;1.30;;;1.20;;
13026;SDS011;6580;42.680;23.324;2023-12-14T13:35:49;2.07;;;1.90;;
13026;SDS011;6580;42.680;23.324;2023-12-14T13:38:16;6.27;;;3.80;;
13026;SDS011;6580;42.680;23.324;2023-12-14T13:40:43;2.67;;;2.47;;
13026;SDS011;6580;42.680;23.324;2023-12-14T13:43:09;2.17;;;1.93;;
13026;SDS011;6580;42.680;23.324;2023-12-14T13:45:38;2.87;;;1.70;;
13026;SDS011;6580;42.680;23.324;2023-12-14T13:48:07;2.30;;;2.00;;
13026;SDS011;6580;42.680;23.324;2023-12-14T13:50:34;4.83;;;1.90;;
13026;SDS011;6580;42.680;23.324;2023-12-14T13:53:01;2.03;;;1.77;;
13026;SDS011;6580;42.680;23.324;2023-12-14T13:55:29;2.60;;;1.47;;
13026;SDS011;6580;42.680;23.324;2023-12-14T13:57:56;2.07;;;1.30;;
13026;SDS011;6580;42.680;23.324;2023-12-14T14:00:25;1.47;;;1.37;;
13026;SDS011;6580;42.680;23.324;2023-12-14T14:02:53;1.60;;;1.50;;
13026;SDS011;6580;42.680;23.324;2023-12-14T14:05:21;3.10;;;1.90;;
13026;SDS011;6580;42.680;23.324;2023-12-14T14:07:48;2.57;;;1.57;;
13026;SDS011;6580;42.680;23.324;2023-12-14T14:10:15;1.63;;;1.40;;
13026;SDS011;6580;42.680;23.324;2023-12-14T14:12:42;2.43;;;1.70;;
13026;SDS011;6580;42.680;23.324;2023-12-14T14:15:09;1.40;;;1.30;;
13026;SDS011;6580;42.680;23.324;2023-12-14T14:17:39;1.40;;;1.30;;
13026;SDS011;6580;42.680;23.324;2023-12-14T14:20:08;2.57;;;1.57;;
13026;SDS011;6580;42.680;23.324;2023-12-14T14:22:35;4.03;;;1.47;;
13026;SDS011;6580;42.680;23.324;2023-12-14T14:25:03;2.30;;;1.90;;
13026;SDS011;6580;42.680;23.324;2023-12-14T14:27:31;2.60;;;2.00;;
13026;SDS011;6580;42.680;23.324;2023-12-14T14:29:59;2.33;;;2.13;;
13026;SDS011;6580;42.680;23.324;2023-12-14T14:32:26;3.60;;;2.07;;
13026;SDS011;6580;42.680;23.324;2023-12-14T14:34:53;2.47;;;1.53;;
13026;SDS011;6580;42.680;23.324;2023-12-14T14:37:23;2.43;;;1.53;;
13026;SDS011;6580;42.680;23.324;2023-12-14T14:39:50;1.57;;;1.47;;
13026;SDS011;6580;42.680;23.324;2023-12-14T14:42:17;3.47;;;2.40;;